Time;durP1;ratioP1;P1;durP2;ratioP2;P2;SDS_P1;SDS_P2;PMS_P1;PMS_P2;Temp;Humidity;BMP_temperature;BMP_pressure;BME280_temperature;BME280_humidity;BME280_pressure;Samples;Min_cycle;Max_cycle;Signal;HPM_P1;HPM_P2
2023/04/12 02:00:49;;;;;;;15.63;9.10;;;;;;;;;;4827309;28;20050;-71
2023/04/12 02:03:19;;;;;;;17.62;10.57;;;;;;;;;;4269729;33;20080;-71
2023/04/12 02:05:45;;;;;;;15.95;9.10;;;;;;;;;;4269819;33;20408;-74
2023/04/12 02:08:11;;;;;;;18.73;10.07;;;;;;;;;;4271259;33;20057;-71
2023/04/12 02:10:39;;;;;;;17.62;10.38;;;;;;;;;;4272445;33;20080;-71
2023/04/12 02:13:05;;;;;;;18.55;10.32;;;;;;;;;;4271468;33;20055;-71
2023/04/12 02:15:32;;;;;;;19.73;10.68;;;;;;;;;;4271187;33;20746;-74
2023/04/12 02:17:59;;;;;;;15.90;10.07;;;;;;;;;;4252493;33;20103;-73
2023/04/12 02:20:26;;;;;;;16.37;10.38;;;;;;;;;;4254854;33;20049;-71
2023/04/12 02:22:52;;;;;;;21.50;9.82;;;;;;;;;;4255027;33;20072;-73
2023/04/12 02:25:18;;;;;;;17.48;9.65;;;;;;;;;;4254191;33;20546;-73
2023/04/12 02:27:45;;;;;;;18.02;10.07;;;;;;;;;;4253880;33;20067;-72
2023/04/12 02:30:12;;;;;;;16.92;9.38;;;;;;;;;;4253145;33;20381;-74
2023/04/12 02:32:45;;;;;;;16.90;11.00;;;;;;;;;;4253412;33;20090;-73
2023/04/12 02:35:13;;;;;;;15.43;9.25;;;;;;;;;;4254238;33;20112;-73
2023/04/12 02:37:40;;;;;;;17.40;9.75;;;;;;;;;;4252364;33;20053;-71
2023/04/12 02:40:09;;;;;;;19.90;11.23;;;;;;;;;;4252102;33;20043;-73
2023/04/12 02:42:37;;;;;;;17.67;10.88;;;;;;;;;;4251890;33;20310;-72
2023/04/12 02:45:04;;;;;;;18.87;10.65;;;;;;;;;;4252425;33;20075;-72
2023/04/12 02:47:30;;;;;;;17.25;10.43;;;;;;;;;;4252059;33;20042;-71
2023/04/12 02:49:57;;;;;;;15.07;8.93;;;;;;;;;;4249557;33;20050;-72
2023/04/12 02:52:23;;;;;;;16.35;9.88;;;;;;;;;;4251826;33;20076;-72
2023/04/12 02:54:51;;;;;;;18.05;11.55;;;;;;;;;;4252397;33;20056;-72
2023/04/12 02:57:19;;;;;;;21.77;10.52;;;;;;;;;;4251935;33;20050;-72
2023/04/12 02:59:47;;;;;;;16.98;9.38;;;;;;;;;;4251429;33;20038;-73
2023/04/12 03:02:14;;;;;;;17.62;10.02;;;;;;;;;;4249859;33;20054;-72
2023/04/12 03:04:41;;;;;;;15.90;10.75;;;;;;;;;;4252040;33;20392;-72
2023/04/12 03:07:08;;;;;;;17.80;9.18;;;;;;;;;;4251790;33;20106;-72
2023/04/12 03:09:37;;;;;;;24.83;12.02;;;;;;;;;;4251836;33;20039;-72
2023/04/12 03:12:04;;;;;;;17.70;9.98;;;;;;;;;;4264206;33;20058;-72
2023/04/12 03:14:31;;;;;;;18.10;10.25;;;;;;;;;;4267178;33;20037;-71
2023/04/12 03:16:58;;;;;;;24.23;9.93;;;;;;;;;;4267093;33;20394;-71
2023/04/12 03:19:24;;;;;;;17.70;9.05;;;;;;;;;;4267411;33;20074;-71
2023/04/12 03:21:51;;;;;;;20.92;10.95;;;;;;;;;;4265903;33;20062;-71
2023/04/12 03:24:17;;;;;;;16.20;9.82;;;;;;;;;;4267974;33;20080;-71
2023/04/12 03:26:44;;;;;;;14.80;9.63;;;;;;;;;;4266916;33;20061;-71
2023/04/12 03:29:10;;;;;;;16.60;10.18;;;;;;;;;;4267482;33;20049;-71
2023/04/12 03:31:37;;;;;;;15.00;9.88;;;;;;;;;;4267795;33;20076;-74
2023/04/12 03:34:03;;;;;;;16.95;11.30;;;;;;;;;;4248796;33;20042;-71
2023/04/12 03:36:30;;;;;;;18.17;10.57;;;;;;;;;;4251724;33;20050;-71
2023/04/12 03:38:56;;;;;;;18.20;10.75;;;;;;;;;;4251544;33;20041;-71
2023/04/12 03:41:23;;;;;;;17.05;10.20;;;;;;;;;;4251134;33;20078;-71
2023/04/12 03:43:49;;;;;;;21.50;10.68;;;;;;;;;;4219745;34;20452;-72
2023/04/12 03:46:16;;;;;;;18.85;11.00;;;;;;;;;;4223260;34;20055;-72
2023/04/12 03:48:42;;;;;;;18.67;9.90;;;;;;;;;;4222787;33;20465;-74
2023/04/12 03:51:11;;;;;;;18.17;11.20;;;;;;;;;;4223042;34;20165;-73
2023/04/12 03:53:37;;;;;;;22.83;10.63;;;;;;;;;;4222892;34;20072;-73
2023/04/12 03:56:04;;;;;;;18.45;10.73;;;;;;;;;;4220814;34;20433;-72
2023/04/12 03:58:32;;;;;;;19.37;10.88;;;;;;;;;;4222967;34;20445;-72
2023/04/12 04:01:04;;;;;;;17.40;10.20;;;;;;;;;;4222309;34;20144;-71
2023/04/12 04:03:33;;;;;;;32.90;14.77;;;;;;;;;;4209091;34;20445;-72
2023/04/12 04:06:01;;;;;;;18.83;10.02;;;;;;;;;;4207956;34;20451;-72
2023/04/12 04:08:31;;;;;;;16.37;10.10;;;;;;;;;;4209258;34;20039;-72
2023/04/12 04:10:58;;;;;;;18.15;10.95;;;;;;;;;;4209134;34;20054;-72
2023/04/12 04:13:25;;;;;;;16.50;11.35;;;;;;;;;;4208649;34;20436;-72
2023/04/12 04:15:59;;;;;;;16.90;11.32;;;;;;;;;;4245922;33;20060;-72
2023/04/12 04:18:26;;;;;;;21.75;11.80;;;;;;;;;;4253325;33;20050;-72
2023/04/12 04:20:52;;;;;;;19.98;10.93;;;;;;;;;;4265656;33;20496;-72
2023/04/12 04:23:18;;;;;;;21.65;11.20;;;;;;;;;;4276693;33;20088;-72
2023/04/12 04:25:45;;;;;;;19.60;10.57;;;;;;;;;;4267110;33;20073;-73
2023/04/12 04:28:18;;;;;;;20.25;11.70;;;;;;;;;;4281367;33;21078;-73
2023/04/12 04:30:45;;;;;;;19.75;10.73;;;;;;;;;;4281762;33;20053;-71
2023/04/12 04:33:11;;;;;;;23.30;11.55;;;;;;;;;;4281401;33;20079;-72
2023/04/12 04:35:38;;;;;;;20.20;10.50;;;;;;;;;;4263655;33;20050;-73
2023/04/12 04:38:05;;;;;;;21.02;10.90;;;;;;;;;;4264295;33;20485;-72
2023/04/12 04:40:32;;;;;;;24.10;11.25;;;;;;;;;;4264750;33;20045;-71
2023/04/12 04:42:58;;;;;;;14.07;9.55;;;;;;;;;;4264250;33;20099;-72
2023/04/12 04:45:25;;;;;;;18.67;10.27;;;;;;;;;;4254127;33;20906;-71
2023/04/12 04:47:55;;;;;;;23.12;10.75;;;;;;;;;;4248897;33;20042;-72
2023/04/12 04:50:22;;;;;;;20.45;12.00;;;;;;;;;;4250331;33;20046;-71
2023/04/12 04:52:52;;;;;;;20.48;12.00;;;;;;;;;;4250331;33;20110;-71
2023/04/12 04:55:20;;;;;;;18.45;11.63;;;;;;;;;;4246786;33;20081;-71
2023/04/12 04:57:46;;;;;;;21.48;11.75;;;;;;;;;;4248774;33;20066;-73
2023/04/12 05:00:13;;;;;;;22.73;12.13;;;;;;;;;;4248784;33;20135;-72
2023/04/12 05:02:41;;;;;;;18.73;10.80;;;;;;;;;;4249299;33;20058;-71
2023/04/12 05:05:09;;;;;;;20.83;11.12;;;;;;;;;;4250071;33;20786;-71
2023/04/12 05:07:36;;;;;;;17.25;9.57;;;;;;;;;;4264519;33;20042;-71
2023/04/12 05:10:04;;;;;;;19.75;10.68;;;;;;;;;;4264104;33;20054;-72
2023/04/12 05:12:30;;;;;;;21.98;12.05;;;;;;;;;;4265533;33;20098;-72
2023/04/12 05:14:57;;;;;;;20.30;10.45;;;;;;;;;;4248744;33;20079;-72
2023/04/12 05:17:23;;;;;;;15.52;9.95;;;;;;;;;;4248788;33;20077;-72
2023/04/12 05:19:49;;;;;;;18.08;10.10;;;;;;;;;;4249389;33;20407;-71
2023/04/12 05:22:19;;;;;;;15.77;9.55;;;;;;;;;;4247100;33;20072;-72
2023/04/12 05:24:48;;;;;;;15.45;9.40;;;;;;;;;;4250032;33;20054;-71
2023/04/12 05:27:15;;;;;;;18.33;9.95;;;;;;;;;;4249278;33;20056;-72
2023/04/12 05:29:42;;;;;;;18.45;10.52;;;;;;;;;;4249826;33;20054;-71
2023/04/12 05:32:09;;;;;;;16.77;9.75;;;;;;;;;;4248149;33;20115;-73
2023/04/12 05:34:36;;;;;;;14.98;10.15;;;;;;;;;;4248741;33;20050;-71
2023/04/12 05:37:02;;;;;;;16.58;10.20;;;;;;;;;;4249762;33;20034;-71
2023/04/12 05:39:30;;;;;;;17.70;10.70;;;;;;;;;;4249314;33;20037;-72
2023/04/12 05:41:56;;;;;;;12.93;8.43;;;;;;;;;;4248352;33;20064;-72
2023/04/12 05:44:24;;;;;;;15.98;9.88;;;;;;;;;;4246849;33;20069;-72
2023/04/12 05:46:51;;;;;;;23.08;10.63;;;;;;;;;;4262035;33;20060;-72
2023/04/12 05:49:17;;;;;;;16.17;10.77;;;;;;;;;;4264614;33;20045;-72
2023/04/12 05:51:50;;;;;;;21.23;11.23;;;;;;;;;;4262753;33;20383;-72
2023/04/12 05:54:19;;;;;;;20.17;12.52;;;;;;;;;;4261546;33;20054;-72
2023/04/12 05:56:46;;;;;;;15.32;10.13;;;;;;;;;;4262705;33;20038;-73
2023/04/12 05:59:12;;;;;;;17.58;10.98;;;;;;;;;;4261378;33;20349;-72
2023/04/12 06:01:41;;;;;;;16.35;9.70;;;;;;;;;;4229937;33;20133;-73
2023/04/12 06:04:08;;;;;;;14.85;9.48;;;;;;;;;;4233220;33;20042;-75
2023/04/12 06:06:34;;;;;;;18.45;11.18;;;;;;;;;;4236077;33;21058;-73
2023/04/12 06:09:01;;;;;;;18.90;10.98;;;;;;;;;;4244778;33;20054;-72
2023/04/12 06:11:28;;;;;;;16.90;11.07;;;;;;;;;;4235289;33;20042;-72
2023/04/12 06:13:54;;;;;;;16.67;9.68;;;;;;;;;;4238038;33;20095;-72
2023/04/12 06:16:20;;;;;;;19.95;10.52;;;;;;;;;;4235357;33;20354;-74
2023/04/12 06:18:47;;;;;;;17.75;9.02;;;;;;;;;;4231600;33;20046;-72
2023/04/12 06:21:13;;;;;;;21.02;10.43;;;;;;;;;;4239651;33;20499;-73
2023/04/12 06:23:40;;;;;;;14.98;9.98;;;;;;;;;;4233603;33;20050;-72
2023/04/12 06:26:06;;;;;;;18.62;10.35;;;;;;;;;;4236082;33;20469;-72
2023/04/12 06:28:32;;;;;;;15.93;10.45;;;;;;;;;;4236902;33;20039;-75
2023/04/12 06:30:59;;;;;;;19.95;10.88;;;;;;;;;;4237132;33;20068;-72
2023/04/12 06:33:26;;;;;;;15.45;8.88;;;;;;;;;;4260243;33;20169;-74
2023/04/12 06:35:52;;;;;;;16.65;10.35;;;;;;;;;;4267065;33;20054;-72
2023/04/12 06:38:18;;;;;;;15.43;9.30;;;;;;;;;;4264787;33;20139;-71
2023/04/12 06:40:44;;;;;;;23.08;10.85;;;;;;;;;;4264664;33;20065;-72
2023/04/12 06:43:11;;;;;;;23.25;10.38;;;;;;;;;;4264256;33;20053;-72
2023/04/12 06:45:43;;;;;;;16.00;10.18;;;;;;;;;;4265360;33;20050;-73
2023/04/12 06:48:10;;;;;;;20.98;10.27;;;;;;;;;;4265761;33;20042;-72
2023/04/12 06:50:36;;;;;;;19.75;10.45;;;;;;;;;;4267725;33;20049;-71
2023/04/12 06:53:02;;;;;;;18.30;11.10;;;;;;;;;;4251176;33;20505;-74
2023/04/12 06:55:28;;;;;;;18.98;10.32;;;;;;;;;;4250927;33;21137;-72
2023/04/12 06:57:55;;;;;;;20.27;9.75;;;;;;;;;;4249773;33;20042;-71
2023/04/12 07:00:21;;;;;;;16.10;10.07;;;;;;;;;;4247765;33;20102;-72
2023/04/12 07:02:47;;;;;;;17.12;10.15;;;;;;;;;;4247874;33;20057;-72
2023/04/12 07:05:13;;;;;;;18.67;10.40;;;;;;;;;;4242227;33;20072;-74
2023/04/12 07:07:40;;;;;;;18.45;9.80;;;;;;;;;;4249540;33;20857;-72
2023/04/12 07:10:06;;;;;;;14.80;9.25;;;;;;;;;;4250857;33;20041;-72
2023/04/12 07:12:32;;;;;;;15.82;9.48;;;;;;;;;;4249821;33;20846;-72
2023/04/12 07:14:58;;;;;;;17.05;10.35;;;;;;;;;;4247735;33;20247;-72
2023/04/12 07:17:27;;;;;;;20.88;9.82;;;;;;;;;;4246227;33;20149;-72
2023/04/12 07:19:53;;;;;;;19.58;10.77;;;;;;;;;;4243710;33;20128;-72
2023/04/12 07:22:20;;;;;;;18.77;11.07;;;;;;;;;;4249280;33;20080;-72
2023/04/12 07:24:47;;;;;;;20.60;12.13;;;;;;;;;;4259604;33;20071;-72
2023/04/12 07:27:13;;;;;;;21.17;12.37;;;;;;;;;;4255022;33;20838;-72
2023/04/12 07:29:39;;;;;;;20.58;11.07;;;;;;;;;;4257222;33;20161;-73
2023/04/12 07:32:06;;;;;;;14.98;10.88;;;;;;;;;;4263809;33;20407;-71
2023/04/12 07:34:32;;;;;;;18.27;10.35;;;;;;;;;;4264491;33;20053;-71
2023/04/12 07:36:59;;;;;;;17.40;10.52;;;;;;;;;;4263535;33;20089;-71
2023/04/12 07:39:28;;;;;;;22.08;12.35;;;;;;;;;;4262392;33;20033;-71
2023/04/12 07:41:54;;;;;;;16.08;10.00;;;;;;;;;;4261707;33;20493;-72
2023/04/12 07:44:20;;;;;;;16.37;9.63;;;;;;;;;;4262405;33;20054;-73
2023/04/12 07:46:47;;;;;;;14.70;9.32;;;;;;;;;;4245146;33;20064;-72
2023/04/12 07:49:13;;;;;;;17.30;9.13;;;;;;;;;;4235821;33;20063;-72
2023/04/12 07:51:41;;;;;;;15.90;7.82;;;;;;;;;;4245804;33;20053;-72
2023/04/12 07:54:07;;;;;;;13.93;8.63;;;;;;;;;;4233969;33;20047;-72
2023/04/12 07:56:34;;;;;;;16.15;8.48;;;;;;;;;;4235990;33;20740;-72
2023/04/12 07:59:02;;;;;;;11.68;7.75;;;;;;;;;;4234831;33;20074;-72
2023/04/12 08:01:29;;;;;;;17.08;7.53;;;;;;;;;;4234125;33;20053;-72
2023/04/12 08:03:56;;;;;;;14.00;7.93;;;;;;;;;;4234742;33;20068;-74
2023/04/12 08:06:22;;;;;;;11.80;8.10;;;;;;;;;;4234652;33;20272;-71
2023/04/12 08:08:48;;;;;;;11.68;7.62;;;;;;;;;;4221193;33;20742;-72
2023/04/12 08:11:15;;;;;;;13.52;8.93;;;;;;;;;;4220320;33;20108;-72
2023/04/12 08:13:41;;;;;;;13.30;7.85;;;;;;;;;;4221945;33;20051;-71
2023/04/12 08:16:07;;;;;;;11.35;7.82;;;;;;;;;;4220140;33;20445;-77
2023/04/12 08:18:34;;;;;;;23.05;7.00;;;;;;;;;;4199243;34;20074;-71
2023/04/12 08:21:00;;;;;;;14.95;7.10;;;;;;;;;;4217465;33;20063;-71
2023/04/12 08:23:26;;;;;;;25.23;7.60;;;;;;;;;;4221359;33;20046;-71
2023/04/12 08:26:01;;;;;;;8.02;5.53;;;;;;;;;;4207800;34;20458;-72
2023/04/12 08:28:28;;;;;;;9.73;5.95;;;;;;;;;;4200478;34;20035;-72
2023/04/12 08:30:54;;;;;;;14.60;6.43;;;;;;;;;;4198732;34;20211;-72
2023/04/12 08:33:20;;;;;;;8.93;5.57;;;;;;;;;;4198707;34;20057;-71
2023/04/12 08:35:47;;;;;;;10.27;5.40;;;;;;;;;;4199230;34;20596;-71
2023/04/12 08:38:13;;;;;;;7.95;5.75;;;;;;;;;;4219352;33;20074;-75
2023/04/12 08:40:46;;;;;;;8.98;5.93;;;;;;;;;;4240380;33;20075;-72
2023/04/12 08:43:13;;;;;;;7.85;5.20;;;;;;;;;;4245743;33;20808;-71
2023/04/12 08:45:42;;;;;;;8.80;5.47;;;;;;;;;;4229329;33;20068;-70
2023/04/12 08:48:08;;;;;;;12.65;6.30;;;;;;;;;;4254619;33;20109;-71
2023/04/12 08:50:36;;;;;;;7.78;5.68;;;;;;;;;;4248316;33;20260;-72
2023/04/12 08:53:02;;;;;;;9.25;6.53;;;;;;;;;;4247014;33;20038;-71
2023/04/12 08:55:29;;;;;;;8.88;5.32;;;;;;;;;;4257377;33;20101;-72
2023/04/12 08:57:55;;;;;;;7.90;5.20;;;;;;;;;;4254038;33;20129;-74
2023/04/12 09:00:22;;;;;;;7.87;6.30;;;;;;;;;;4228478;33;20051;-74
2023/04/12 09:02:48;;;;;;;10.07;6.85;;;;;;;;;;4224495;33;20076;-72
2023/04/12 09:05:14;;;;;;;11.65;7.80;;;;;;;;;;4224488;33;20495;-72
2023/04/12 09:07:41;;;;;;;10.45;6.10;;;;;;;;;;4224425;33;20805;-72
2023/04/12 09:10:07;;;;;;;11.15;5.70;;;;;;;;;;4234833;33;20064;-73
2023/04/12 09:12:34;;;;;;;11.32;7.50;;;;;;;;;;4249231;33;20030;-72
2023/04/12 09:15:07;;;;;;;15.00;7.10;;;;;;;;;;4249006;33;20520;-72
2023/04/12 09:17:35;;;;;;;9.40;6.62;;;;;;;;;;4249945;33;20056;-72
2023/04/12 09:20:03;;;;;;;11.63;7.22;;;;;;;;;;4249126;33;20597;-73
2023/04/12 09:22:33;;;;;;;10.02;6.65;;;;;;;;;;4247404;33;20085;-72
2023/04/12 09:25:00;;;;;;;16.33;7.25;;;;;;;;;;4246535;33;20042;-72
2023/04/12 09:27:28;;;;;;;9.35;6.25;;;;;;;;;;4228074;33;20397;-72
2023/04/12 09:30:07;;;;;;;8.45;6.22;;;;;;;;;;4219955;33;20038;-75
2023/04/12 09:32:34;;;;;;;11.10;6.65;;;;;;;;;;4257137;33;20750;-72
2023/04/12 09:35:01;;;;;;;11.20;6.32;;;;;;;;;;4253818;33;20169;-73
2023/04/12 09:37:27;;;;;;;13.02;6.10;;;;;;;;;;4248552;33;20037;-72
2023/04/12 09:40:01;;;;;;;9.77;6.50;;;;;;;;;;4220913;33;20481;-73
2023/04/12 09:42:27;;;;;;;8.82;5.60;;;;;;;;;;4220158;33;20408;-70
2023/04/12 09:44:55;;;;;;;10.98;6.90;;;;;;;;;;4221451;33;20077;-72
2023/04/12 09:47:21;;;;;;;16.60;6.90;;;;;;;;;;4221478;33;20042;-72
2023/04/12 09:49:47;;;;;;;9.02;6.47;;;;;;;;;;4212662;33;20183;-71
2023/04/12 09:52:14;;;;;;;6.12;4.78;;;;;;;;;;4193761;34;20871;-74
2023/04/12 09:54:44;;;;;;;6.55;5.35;;;;;;;;;;4197576;34;20073;-72
2023/04/12 09:57:10;;;;;;;19.45;5.62;;;;;;;;;;4208892;34;20043;-73
2023/04/12 09:59:39;;;;;;;16.52;5.28;;;;;;;;;;4210216;34;20153;-72
2023/04/12 10:02:15;;;;;;;15.35;6.40;;;;;;;;;;4214402;33;20047;-75
2023/04/12 10:04:42;;;;;;;11.75;5.70;;;;;;;;;;4214789;34;21030;-72
2023/04/12 10:07:09;;;;;;;8.10;5.25;;;;;;;;;;4221391;34;20039;-72
2023/04/12 10:09:39;;;;;;;6.30;4.60;;;;;;;;;;4222802;33;20050;-71
2023/04/12 10:12:06;;;;;;;7.37;5.28;;;;;;;;;;4234707;33;20080;-74
2023/04/12 10:14:33;;;;;;;7.30;4.97;;;;;;;;;;4236740;33;20046;-71
2023/04/12 10:17:00;;;;;;;8.82;4.85;;;;;;;;;;4222637;33;20453;-71
2023/04/12 10:19:28;;;;;;;6.50;4.97;;;;;;;;;;4223516;33;20105;-73
2023/04/12 10:21:54;;;;;;;11.93;4.97;;;;;;;;;;4223041;33;20065;-72
2023/04/12 10:24:22;;;;;;;8.68;5.28;;;;;;;;;;4219901;33;20073;-72
2023/04/12 10:26:49;;;;;;;7.32;5.80;;;;;;;;;;4209239;34;20150;-73
2023/04/12 10:29:26;;;;;;;4.95;4.35;;;;;;;;;;4209539;34;20047;-71
2023/04/12 10:31:53;;;;;;;5.90;4.28;;;;;;;;;;4212768;34;20053;-75
2023/04/12 10:34:29;;;;;;;7.68;4.80;;;;;;;;;;4208208;34;20094;-72
2023/04/12 10:36:58;;;;;;;7.68;3.95;;;;;;;;;;4208375;34;20109;-72
2023/04/12 10:39:38;;;;;;;5.80;4.07;;;;;;;;;;4209070;34;20063;-72
2023/04/12 10:42:18;;;;;;;6.90;4.35;;;;;;;;;;4250540;33;20457;-72
2023/04/12 10:44:44;;;;;;;11.07;4.10;;;;;;;;;;4251891;33;20050;-72
2023/04/12 10:47:11;;;;;;;4.10;3.70;;;;;;;;;;4236193;33;21457;-72
2023/04/12 10:49:37;;;;;;;4.62;3.35;;;;;;;;;;4234049;33;20133;-74
2023/04/12 10:52:03;;;;;;;4.45;3.12;;;;;;;;;;4236826;33;20496;-71
2023/04/12 10:54:31;;;;;;;4.05;3.62;;;;;;;;;;4236869;33;20221;-72
2023/04/12 10:56:57;;;;;;;5.45;3.67;;;;;;;;;;4239771;33;20035;-71
2023/04/12 10:59:24;;;;;;;9.68;4.20;;;;;;;;;;4249910;33;21110;-72
2023/04/12 11:02:05;;;;;;;7.90;4.90;;;;;;;;;;4393804;28;20050;-70
2023/04/12 11:04:32;;;;;;;7.55;4.60;;;;;;;;;;4240535;33;20058;-71
2023/04/12 11:07:00;;;;;;;8.40;4.72;;;;;;;;;;4244572;33;20058;-71
2023/04/12 11:09:29;;;;;;;6.40;4.72;;;;;;;;;;4243432;33;20069;-70
2023/04/12 11:12:04;;;;;;;8.35;5.20;;;;;;;;;;4249254;33;20497;-71
2023/04/12 11:14:43;;;;;;;9.75;5.35;;;;;;;;;;4233233;33;20109;-72
2023/04/12 11:17:12;;;;;;;13.00;5.90;;;;;;;;;;4236040;33;20204;-71
2023/04/12 11:19:40;;;;;;;7.22;5.45;;;;;;;;;;4234911;33;20087;-70
2023/04/12 11:22:07;;;;;;;13.02;5.70;;;;;;;;;;4234773;33;20195;-72
2023/04/12 11:24:36;;;;;;;8.68;5.68;;;;;;;;;;4235666;33;20068;-71
2023/04/12 11:27:03;;;;;;;7.35;4.97;;;;;;;;;;4232538;33;20060;-71
2023/04/12 11:29:31;;;;;;;9.23;4.85;;;;;;;;;;4236797;33;20087;-70
2023/04/12 11:31:57;;;;;;;13.27;5.40;;;;;;;;;;4250165;33;20035;-70
2023/04/12 11:34:24;;;;;;;12.85;6.00;;;;;;;;;;4235387;33;20058;-73
2023/04/12 11:36:53;;;;;;;14.40;5.95;;;;;;;;;;4248703;33;21425;-71
2023/04/12 11:39:20;;;;;;;8.10;5.28;;;;;;;;;;4228278;33;20111;-69
2023/04/12 11:41:47;;;;;;;6.47;5.00;;;;;;;;;;4228833;33;20093;-70
2023/04/12 11:44:14;;;;;;;8.57;4.90;;;;;;;;;;4229538;33;20055;-71
2023/04/12 11:46:40;;;;;;;13.35;5.72;;;;;;;;;;4240218;33;20067;-70
2023/04/12 11:49:06;;;;;;;10.52;5.82;;;;;;;;;;4227033;33;20046;-70
2023/04/12 11:51:34;;;;;;;7.82;4.80;;;;;;;;;;4226625;33;20077;-70
2023/04/12 11:54:00;;;;;;;10.55;5.75;;;;;;;;;;4227126;33;20064;-71
2023/04/12 11:56:27;;;;;;;9.00;5.80;;;;;;;;;;4224945;33;20422;-73
2023/04/12 11:58:54;;;;;;;7.90;5.57;;;;;;;;;;4206581;34;20073;-71
2023/04/12 12:01:21;;;;;;;7.07;5.10;;;;;;;;;;4205852;34;20126;-70
2023/04/12 12:03:49;;;;;;;7.68;5.32;;;;;;;;;;4197371;34;20497;-70
2023/04/12 12:06:16;;;;;;;12.93;5.40;;;;;;;;;;4192047;34;20040;-70
2023/04/12 12:08:43;;;;;;;10.15;5.65;;;;;;;;;;4198541;34;20084;-71
2023/04/12 12:11:09;;;;;;;7.68;5.43;;;;;;;;;;4205524;34;20061;-70
2023/04/12 12:13:45;;;;;;;16.40;6.50;;;;;;;;;;4206907;34;20051;-70
2023/04/12 12:16:11;;;;;;;13.27;6.95;;;;;;;;;;4205361;34;20076;-70
2023/04/12 12:18:39;;;;;;;16.77;6.80;;;;;;;;;;4206616;34;20115;-72
2023/04/12 12:21:07;;;;;;;11.35;5.85;;;;;;;;;;4219407;34;20043;-70
2023/04/12 12:23:34;;;;;;;7.28;6.10;;;;;;;;;;4222056;34;20065;-71
2023/04/12 12:26:02;;;;;;;9.52;5.62;;;;;;;;;;4221909;34;20118;-70
2023/04/12 12:28:29;;;;;;;8.27;5.12;;;;;;;;;;4221636;34;20051;-70
2023/04/12 12:30:58;;;;;;;9.60;5.12;;;;;;;;;;4231618;33;20039;-70
2023/04/12 12:33:34;;;;;;;8.45;4.72;;;;;;;;;;4235026;33;20453;-70
2023/04/12 12:36:01;;;;;;;9.82;5.95;;;;;;;;;;4235387;33;20046;-70
2023/04/12 12:38:33;;;;;;;9.70;5.78;;;;;;;;;;4227177;33;20054;-73
2023/04/12 12:41:12;;;;;;;8.57;5.43;;;;;;;;;;4232032;33;20068;-70
2023/04/12 12:43:43;;;;;;;9.75;5.95;;;;;;;;;;4227710;33;20080;-70
2023/04/12 12:46:10;;;;;;;7.65;5.15;;;;;;;;;;4225947;33;20082;-73
2023/04/12 12:48:39;;;;;;;8.95;4.72;;;;;;;;;;4232691;33;20095;-70
2023/04/12 12:51:05;;;;;;;9.75;6.65;;;;;;;;;;4233360;33;20038;-70
2023/04/12 12:53:32;;;;;;;9.25;5.95;;;;;;;;;;4233978;33;20101;-70
2023/04/12 12:55:57;;;;;;;13.93;5.90;;;;;;;;;;4234924;33;20097;-69
2023/04/12 12:58:24;;;;;;;11.48;6.15;;;;;;;;;;4233634;33;20046;-70
2023/04/12 13:00:50;;;;;;;9.10;6.20;;;;;;;;;;4233838;33;20043;-70
2023/04/12 13:03:17;;;;;;;8.45;5.82;;;;;;;;;;4232954;33;20132;-71
2023/04/12 13:05:43;;;;;;;10.20;6.28;;;;;;;;;;4231679;33;20226;-71
2023/04/12 13:08:09;;;;;;;10.45;5.50;;;;;;;;;;4233117;33;20065;-70
2023/04/12 13:10:35;;;;;;;7.28;5.90;;;;;;;;;;4230956;33;20052;-73
2023/04/12 13:13:07;;;;;;;9.45;5.90;;;;;;;;;;4252502;33;20210;-70
2023/04/12 13:15:34;;;;;;;10.98;6.32;;;;;;;;;;4255940;33;20054;-71
2023/04/12 13:18:00;;;;;;;8.82;5.43;;;;;;;;;;4253983;33;20045;-72
2023/04/12 13:20:27;;;;;;;6.95;5.15;;;;;;;;;;4250569;33;20237;-71
2023/04/12 13:22:53;;;;;;;6.68;5.00;;;;;;;;;;4257819;33;20074;-68
2023/04/12 13:25:20;;;;;;;10.20;6.22;;;;;;;;;;4262885;33;20038;-70
2023/04/12 13:27:47;;;;;;;5.70;4.70;;;;;;;;;;4262965;33;20049;-70
2023/04/12 13:30:14;;;;;;;15.80;5.28;;;;;;;;;;4262635;33;20473;-71
2023/04/12 13:32:40;;;;;;;8.65;5.00;;;;;;;;;;4263808;33;20072;-77
2023/04/12 13:35:06;;;;;;;6.20;4.47;;;;;;;;;;4265536;33;20054;-71
2023/04/12 13:37:33;;;;;;;12.32;4.82;;;;;;;;;;4264699;33;20056;-71
2023/04/12 13:39:59;;;;;;;11.55;6.35;;;;;;;;;;4253379;33;20042;-72
2023/04/12 13:42:26;;;;;;;13.50;5.45;;;;;;;;;;4262634;33;20550;-74
2023/04/12 13:44:52;;;;;;;6.45;5.32;;;;;;;;;;4262363;33;20425;-72
2023/04/12 13:47:19;;;;;;;12.37;5.22;;;;;;;;;;4253946;33;20403;-74
2023/04/12 13:49:45;;;;;;;9.52;5.20;;;;;;;;;;4257845;33;20089;-73
2023/04/12 13:52:11;;;;;;;14.02;5.43;;;;;;;;;;4250018;33;20068;-72
2023/04/12 13:54:37;;;;;;;19.62;6.00;;;;;;;;;;4251783;33;20639;-73
2023/04/12 13:57:04;;;;;;;10.77;6.30;;;;;;;;;;4237521;33;20049;-71
2023/04/12 13:59:31;;;;;;;7.45;5.20;;;;;;;;;;4236566;33;20392;-72
2023/04/12 14:01:57;;;;;;;6.82;4.95;;;;;;;;;;4228008;33;20051;-71
2023/04/12 14:04:26;;;;;;;8.00;4.65;;;;;;;;;;4224360;34;20031;-72
2023/04/12 14:06:52;;;;;;;7.47;4.43;;;;;;;;;;4221740;34;20063;-74
2023/04/12 14:09:25;;;;;;;8.23;4.93;;;;;;;;;;4221647;34;20150;-74
2023/04/12 14:11:54;;;;;;;8.50;5.78;;;;;;;;;;4220331;34;20046;-72
2023/04/12 14:14:20;;;;;;;9.93;5.25;;;;;;;;;;4221227;34;20053;-72
2023/04/12 14:16:48;;;;;;;10.63;6.50;;;;;;;;;;4218713;33;20120;-76
2023/04/12 14:19:15;;;;;;;21.55;5.78;;;;;;;;;;4244558;33;20046;-71
2023/04/12 14:21:41;;;;;;;9.68;5.80;;;;;;;;;;4247895;33;20054;-71
2023/04/12 14:24:07;;;;;;;13.35;5.93;;;;;;;;;;4260519;33;20050;-72
2023/04/12 14:26:34;;;;;;;12.02;5.45;;;;;;;;;;4262569;33;20033;-71
2023/04/12 14:29:00;;;;;;;9.70;5.87;;;;;;;;;;4260319;33;20060;-73
2023/04/12 14:31:26;;;;;;;9.65;6.53;;;;;;;;;;4261651;33;20066;-73
2023/04/12 14:33:53;;;;;;;12.52;6.82;;;;;;;;;;4263508;33;20045;-73
2023/04/12 14:36:20;;;;;;;8.77;5.55;;;;;;;;;;4264355;33;20079;-72
2023/04/12 14:38:48;;;;;;;9.02;5.85;;;;;;;;;;4262492;33;20054;-72
2023/04/12 14:41:16;;;;;;;8.05;5.70;;;;;;;;;;4263648;33;20529;-71
2023/04/12 14:43:42;;;;;;;8.63;5.53;;;;;;;;;;4264897;33;20049;-71
2023/04/12 14:46:09;;;;;;;12.68;6.20;;;;;;;;;;4264352;33;20072;-71
2023/04/12 14:48:36;;;;;;;11.45;6.65;;;;;;;;;;4262542;33;20209;-71
2023/04/12 14:51:02;;;;;;;7.72;5.70;;;;;;;;;;4265091;33;20412;-71
2023/04/12 14:53:29;;;;;;;10.00;6.32;;;;;;;;;;4268012;33;20041;-70
2023/04/12 14:55:56;;;;;;;10.05;5.75;;;;;;;;;;4266676;33;20041;-71
2023/04/12 14:58:22;;;;;;;9.75;5.72;;;;;;;;;;4267454;33;20041;-73
2023/04/12 15:00:49;;;;;;;12.50;5.75;;;;;;;;;;4276359;33;20064;-72
2023/04/12 15:03:15;;;;;;;7.25;5.10;;;;;;;;;;4277115;33;20053;-71
2023/04/12 15:05:41;;;;;;;11.25;5.60;;;;;;;;;;4279568;33;20440;-72
2023/04/12 15:08:07;;;;;;;11.85;5.78;;;;;;;;;;4279659;33;20061;-72
2023/04/12 15:10:34;;;;;;;14.63;6.30;;;;;;;;;;4279469;33;20099;-72
2023/04/12 15:12:59;;;;;;;9.73;4.90;;;;;;;;;;4277401;33;20037;-71
2023/04/12 15:15:26;;;;;;;10.27;5.43;;;;;;;;;;4249848;33;20343;-72
2023/04/12 15:17:52;;;;;;;7.82;5.80;;;;;;;;;;4249398;33;20064;-71
2023/04/12 15:20:18;;;;;;;12.45;7.47;;;;;;;;;;4235076;33;20780;-73
2023/04/12 15:22:44;;;;;;;10.50;5.37;;;;;;;;;;4233467;33;20035;-72
2023/04/12 15:25:11;;;;;;;11.65;5.97;;;;;;;;;;4236970;33;20058;-72
2023/04/12 15:27:37;;;;;;;11.02;6.15;;;;;;;;;;4235354;33;20049;-72
2023/04/12 15:30:04;;;;;;;8.30;5.07;;;;;;;;;;4237147;33;20096;-72
2023/04/12 15:32:36;;;;;;;10.05;5.03;;;;;;;;;;4226294;33;20189;-72
2023/04/12 15:35:04;;;;;;;7.65;5.43;;;;;;;;;;4222113;34;20055;-73
2023/04/12 15:37:33;;;;;;;7.28;5.45;;;;;;;;;;4222781;34;20262;-72
2023/04/12 15:40:00;;;;;;;6.65;4.45;;;;;;;;;;4223842;34;20080;-72
2023/04/12 15:42:26;;;;;;;6.72;4.97;;;;;;;;;;4223013;34;20035;-72
2023/04/12 15:44:52;;;;;;;10.00;6.05;;;;;;;;;;4220419;33;20064;-72
2023/04/12 15:47:18;;;;;;;7.12;5.20;;;;;;;;;;4246487;33;20050;-72
2023/04/12 15:49:46;;;;;;;6.87;4.97;;;;;;;;;;4224627;33;20080;-74
2023/04/12 15:52:12;;;;;;;21.70;5.80;;;;;;;;;;4225641;33;20050;-72
2023/04/12 15:54:41;;;;;;;9.25;4.45;;;;;;;;;;4223555;34;20112;-72
2023/04/12 15:57:08;;;;;;;11.32;5.35;;;;;;;;;;4220820;34;20438;-74
2023/04/12 15:59:36;;;;;;;7.05;5.35;;;;;;;;;;4222780;33;20051;-70
2023/04/12 16:02:05;;;;;;;10.77;5.30;;;;;;;;;;4222192;33;20798;-70
2023/04/12 16:04:32;;;;;;;6.95;5.40;;;;;;;;;;4221133;33;20059;-71
2023/04/12 16:07:01;;;;;;;7.10;5.30;;;;;;;;;;4221236;34;20112;-73
2023/04/12 16:09:27;;;;;;;8.85;5.03;;;;;;;;;;4235421;33;20076;-71
2023/04/12 16:11:54;;;;;;;7.43;5.55;;;;;;;;;;4235386;33;20055;-70
2023/04/12 16:14:20;;;;;;;7.90;4.80;;;;;;;;;;4247869;33;20045;-71
2023/04/12 16:16:47;;;;;;;11.50;5.43;;;;;;;;;;4225154;33;20034;-73
2023/04/12 16:19:13;;;;;;;8.05;5.80;;;;;;;;;;4228585;33;20064;-72
2023/04/12 16:21:40;;;;;;;10.27;5.60;;;;;;;;;;4238777;33;20165;-72
2023/04/12 16:24:13;;;;;;;10.55;6.10;;;;;;;;;;4244593;33;20054;-73
2023/04/12 16:26:40;;;;;;;7.22;5.15;;;;;;;;;;4243231;33;20492;-73
2023/04/12 16:29:07;;;;;;;10.70;6.22;;;;;;;;;;4217201;34;20074;-71
2023/04/12 16:31:33;;;;;;;13.52;6.75;;;;;;;;;;4216510;34;20508;-72